Time;durP1;ratioP1;P1;durP2;ratioP2;P2;SDS_P1;SDS_P2;PMS_P1;PMS_P2;Temp;Humidity;BMP_temperature;BMP_pressure;BME280_temperature;BME280_humidity;BME280_pressure;Samples;Min_cycle;Max_cycle;Signal;HPM_P1;HPM_P2
2021/09/04 00:02:02;;;;;;;;;;;;;;;;;;5011930;28;20019;-66
2021/09/04 00:04:29;;;;;;;;;;;;;;;;;;5012184;28;20009;-67
2021/09/04 00:06:56;;;;;;;;;;;;;;;;;;5013966;28;20002;-66
2021/09/04 00:09:23;;;;;;;;;;;;;;;;;;5015688;28;20003;-67
2021/09/04 00:11:50;;;;;;;;;;;;;;;;;;5015351;28;20045;-67
2021/09/04 00:14:17;;;;;;;;;;;;;;;;;;5016071;28;20006;-67
2021/09/04 00:16:44;;;;;;;;;;;;;;;;;;5015440;28;20050;-67
2021/09/04 00:19:11;;;;;;;;;;;;;;;;;;5015183;28;20022;-66
2021/09/04 00:21:38;;;;;;;;;;;;;;;;;;5015137;28;20045;-67
2021/09/04 00:24:04;;;;;;;;;;;;;;;;;;5015679;28;20003;-66
2021/09/04 00:26:31;;;;;;;;;;;;;;;;;;5015244;28;20003;-67
2021/09/04 00:28:58;;;;;;;;;;;;;;;;;;5015257;28;20453;-67
2021/09/04 00:31:25;;;;;;;;;;;;;;;;;;5015156;28;20002;-66
2021/09/04 00:33:52;;;;;;;;;;;;;;;;;;5015086;28;20010;-67
2021/09/04 00:36:19;;;;;;;;;;;;;;;;;;5015180;28;20002;-66
2021/09/04 00:38:46;;;;;;;;;;;;;;;;;;5015139;28;20029;-67
2021/09/04 00:41:13;;;;;;;;;;;;;;;;;;5014856;28;20025;-66
2021/09/04 00:43:40;;;;;;;;;;;;;;;;;;5014899;28;19998;-67
2021/09/04 00:46:07;;;;;;;;;;;;;;;;;;5015101;28;20002;-67
2021/09/04 00:48:34;;;;;;;;;;;;;;;;;;5014827;28;20057;-67
2021/09/04 00:51:01;;;;;;;;;;;;;;;;;;5014838;28;20012;-66
2021/09/04 00:53:28;;;;;;;;;;;;;;;;;;5014792;28;20018;-67
2021/09/04 00:55:55;;;;;;;;;;;;;;;;;;5014930;28;20002;-67
2021/09/04 00:58:22;;;;;;;;;;;;;;;;;;5014752;28;20021;-67
2021/09/04 01:00:49;;;;;;;;;;;;;;;;;;5014591;28;20024;-67
2021/09/04 01:03:15;;;;;;;;;;;;;;;;;;5014696;28;20022;-66
2021/09/04 01:05:42;;;;;;;;;;;;;;;;;;5014553;28;20009;-66
2021/09/04 01:08:09;;;;;;;;;;;;;;;;;;5014893;28;20355;-66
2021/09/04 01:10:36;;;;;;;;;;;;;;;;;;5014693;28;20010;-67
2021/09/04 01:13:03;;;;;;;;;;;;;;;;;;5014343;28;20018;-67
2021/09/04 01:15:30;;;;;;;;;;;;;;;;;;5014166;28;20002;-67
2021/09/04 01:17:57;;;;;;;;;;;;;;;;;;5014084;28;20021;-66
2021/09/04 01:20:24;;;;;;;;;;;;;;;;;;5014329;28;20002;-67
2021/09/04 01:22:51;;;;;;;;;;;;;;;;;;5013997;28;20022;-68
2021/09/04 01:25:18;;;;;;;;;;;;;;;;;;5014634;28;20003;-66
2021/09/04 01:27:45;;;;;;;;;;;;;;;;;;5014275;28;20025;-67
2021/09/04 01:30:12;;;;;;;;;;;;;;;;;;5013833;28;20002;-67
2021/09/04 01:32:39;;;;;;;;;;;;;;;;;;5014299;28;20018;-67
2021/09/04 01:35:05;;;;;;;;;;;;;;;;;;5014190;28;20381;-67
2021/09/04 01:37:33;;;;;;;;;;;;;;;;;;5014233;28;20002;-67
2021/09/04 01:40:00;;;;;;;;;;;;;;;;;;5014286;28;20002;-66
2021/09/04 01:42:27;;;;;;;;;;;;;;;;;;5013401;28;20022;-67
2021/09/04 01:44:54;;;;;;;;;;;;;;;;;;5014291;28;20358;-67
2021/09/04 01:47:21;;;;;;;;;;;;;;;;;;5013676;28;20009;-67
2021/09/04 01:49:48;;;;;;;;;;;;;;;;;;5014010;28;20002;-67
2021/09/04 01:52:15;;;;;;;;;;;;;;;;;;5013622;28;20018;-66
2021/09/04 01:54:42;;;;;;;;;;;;;;;;;;5013866;28;20006;-67
2021/09/04 01:57:09;;;;;;;;;;;;;;;;;;5013587;28;20003;-67
2021/09/04 01:59:37;;;;;;;;;;;;;;;;;;5013620;28;20018;-67
2021/09/04 02:02:04;;;;;;;;;;;;;;;;;;5013251;28;20109;-66
2021/09/04 02:04:31;;;;;;;;;;;;;;;;;;5013782;28;20008;-66
2021/09/04 02:06:58;;;;;;;;;;;;;;;;;;5013506;28;20002;-67
2021/09/04 02:09:24;;;;;;;;;;;;;;;;;;5013433;28;20013;-67
2021/09/04 02:11:51;;;;;;;;;;;;;;;;;;5012613;28;20026;-67
2021/09/04 02:14:18;;;;;;;;;;;;;;;;;;5013632;28;20366;-67
2021/09/04 02:16:45;;;;;;;;;;;;;;;;;;5013375;28;20002;-66
2021/09/04 02:19:12;;;;;;;;;;;;;;;;;;5013242;28;20018;-67
2021/09/04 02:21:39;;;;;;;;;;;;;;;;;;5012788;28;20018;-66
2021/09/04 02:24:06;;;;;;;;;;;;;;;;;;5013418;28;20010;-66
2021/09/04 02:26:33;;;;;;;;;;;;;;;;;;5012968;28;20033;-67
2021/09/04 02:29:00;;;;;;;;;;;;;;;;;;5012657;28;20002;-67
2021/09/04 02:31:27;;;;;;;;;;;;;;;;;;5012986;28;20009;-67
2021/09/04 02:33:54;;;;;;;;;;;;;;;;;;5012656;28;20473;-66
2021/09/04 02:36:20;;;;;;;;;;;;;;;;;;5013171;28;20003;-67
2021/09/04 02:38:47;;;;;;;;;;;;;;;;;;5012666;28;20025;-66
2021/09/04 02:41:14;;;;;;;;;;;;;;;;;;5012471;28;20469;-67
2021/09/04 02:43:41;;;;;;;;;;;;;;;;;;5012603;28;20014;-67
2021/09/04 02:46:09;;;;;;;;;;;;;;;;;;5013044;28;20002;-66
2021/09/04 02:48:36;;;;;;;;;;;;;;;;;;5012820;28;20002;-66
2021/09/04 02:51:03;;;;;;;;;;;;;;;;;;5012733;28;20009;-66
2021/09/04 02:53:30;;;;;;;;;;;;;;;;;;5012370;28;20512;-66
2021/09/04 02:55:57;;;;;;;;;;;;;;;;;;5012632;28;20006;-66
2021/09/04 02:58:23;;;;;;;;;;;;;;;;;;5012655;28;20049;-67
2021/09/04 03:00:50;;;;;;;;;;;;;;;;;;5012655;28;20002;-66
2021/09/04 03:03:17;;;;;;;;;;;;;;;;;;5012754;28;20022;-67
2021/09/04 03:05:45;;;;;;;;;;;;;;;;;;5012634;28;20025;-66
2021/09/04 03:08:11;;;;;;;;;;;;;;;;;;5012216;28;20541;-66
2021/09/04 03:10:38;;;;;;;;;;;;;;;;;;5012379;28;20009;-66
2021/09/04 03:13:05;;;;;;;;;;;;;;;;;;5012612;28;20018;-66
2021/09/04 03:15:32;;;;;;;;;;;;;;;;;;5012133;28;20389;-67
2021/09/04 03:17:59;;;;;;;;;;;;;;;;;;5012370;28;20003;-67
2021/09/04 03:20:26;;;;;;;;;;;;;;;;;;5012066;28;20025;-65
2021/09/04 03:22:53;;;;;;;;;;;;;;;;;;5012250;28;20018;-67
2021/09/04 03:25:20;;;;;;;;;;;;;;;;;;5012497;28;20009;-67
2021/09/04 03:27:47;;;;;;;;;;;;;;;;;;5012199;28;20461;-66
2021/09/04 03:30:14;;;;;;;;;;;;;;;;;;5012096;28;20009;-67
2021/09/04 03:32:41;;;;;;;;;;;;;;;;;;5012325;28;20018;-66
2021/09/04 03:35:07;;;;;;;;;;;;;;;;;;5012060;28;20056;-65
2021/09/04 03:37:34;;;;;;;;;;;;;;;;;;5012172;28;20449;-66
2021/09/04 03:40:01;;;;;;;;;;;;;;;;;;5013018;28;20018;-65
2021/09/04 03:42:28;;;;;;;;;;;;;;;;;;5015548;28;20026;-65
2021/09/04 03:44:55;;;;;;;;;;;;;;;;;;5016371;28;20009;-65
2021/09/04 03:47:22;;;;;;;;;;;;;;;;;;5016041;28;20002;-64
2021/09/04 03:49:49;;;;;;;;;;;;;;;;;;5015848;28;20476;-66
2021/09/04 03:52:16;;;;;;;;;;;;;;;;;;5015552;28;20018;-65
2021/09/04 03:54:43;;;;;;;;;;;;;;;;;;5016120;28;20006;-66
2021/09/04 03:57:10;;;;;;;;;;;;;;;;;;5015777;28;20008;-65
2021/09/04 03:59:37;;;;;;;;;;;;;;;;;;5016024;28;20022;-65
2021/09/04 04:02:03;;;;;;;;;;;;;;;;;;5015326;28;20014;-65
2021/09/04 04:04:30;;;;;;;;;;;;;;;;;;5015723;28;20381;-65
2021/09/04 04:06:57;;;;;;;;;;;;;;;;;;5015709;28;20002;-65
2021/09/04 04:09:24;;;;;;;;;;;;;;;;;;5015929;28;20109;-65
2021/09/04 04:11:51;;;;;;;;;;;;;;;;;;5015155;28;20409;-66
2021/09/04 04:14:18;;;;;;;;;;;;;;;;;;5015688;28;20002;-65
2021/09/04 04:16:45;;;;;;;;;;;;;;;;;;5015643;28;20002;-65
2021/09/04 04:19:12;;;;;;;;;;;;;;;;;;5015408;28;20018;-65
2021/09/04 04:21:39;;;;;;;;;;;;;;;;;;5015326;28;20025;-65
2021/09/04 04:24:06;;;;;;;;;;;;;;;;;;5015603;28;20002;-65
2021/09/04 04:26:33;;;;;;;;;;;;;;;;;;5015412;28;20025;-65
2021/09/04 04:29:01;;;;;;;;;;;;;;;;;;5015364;28;20041;-65
2021/09/04 04:31:27;;;;;;;;;;;;;;;;;;5015004;28;20001;-66
2021/09/04 04:33:54;;;;;;;;;;;;;;;;;;5015494;28;20009;-65
2021/09/04 04:36:21;;;;;;;;;;;;;;;;;;5015560;28;20100;-65
2021/09/04 04:38:48;;;;;;;;;;;;;;;;;;5015107;28;20470;-65
2021/09/04 04:41:15;;;;;;;;;;;;;;;;;;5015028;28;20009;-65
2021/09/04 04:43:42;;;;;;;;;;;;;;;;;;5015293;28;19998;-65
2021/09/04 04:46:09;;;;;;;;;;;;;;;;;;5014886;28;20382;-65
2021/09/04 04:48:36;;;;;;;;;;;;;;;;;;5014897;28;20002;-66
2021/09/04 04:51:03;;;;;;;;;;;;;;;;;;5014713;28;20121;-65
2021/09/04 04:53:30;;;;;;;;;;;;;;;;;;5014324;28;20029;-65
2021/09/04 04:55:59;;;;;;;;;;;;;;;;;;5014879;28;20482;-65
2021/09/04 04:58:26;;;;;;;;;;;;;;;;;;5014436;28;20478;-65
2021/09/04 05:00:53;;;;;;;;;;;;;;;;;;5014479;28;20002;-65
2021/09/04 05:03:20;;;;;;;;;;;;;;;;;;5014729;28;20018;-64
2021/09/04 05:05:47;;;;;;;;;;;;;;;;;;5014647;28;20480;-64
2021/09/04 05:08:14;;;;;;;;;;;;;;;;;;5014430;28;20007;-64
2021/09/04 05:10:41;;;;;;;;;;;;;;;;;;5014336;28;20003;-65
2021/09/04 05:13:08;;;;;;;;;;;;;;;;;;5014267;28;20018;-65
2021/09/04 05:15:35;;;;;;;;;;;;;;;;;;5014684;28;20002;-65
2021/09/04 05:18:02;;;;;;;;;;;;;;;;;;5014353;28;20115;-65
2021/09/04 05:20:28;;;;;;;;;;;;;;;;;;5013888;28;20018;-66
2021/09/04 05:22:55;;;;;;;;;;;;;;;;;;5014350;28;20026;-65
2021/09/04 05:25:22;;;;;;;;;;;;;;;;;;5014743;28;20109;-65
2021/09/04 05:27:49;;;;;;;;;;;;;;;;;;5014597;28;20006;-65
2021/09/04 05:30:16;;;;;;;;;;;;;;;;;;5013983;28;20009;-65
2021/09/04 05:32:43;;;;;;;;;;;;;;;;;;5014206;28;20169;-64
2021/09/04 05:35:10;;;;;;;;;;;;;;;;;;5014102;28;20484;-65
2021/09/04 05:37:37;;;;;;;;;;;;;;;;;;5014097;28;20002;-66
2021/09/04 05:40:04;;;;;;;;;;;;;;;;;;5013861;28;20041;-65
2021/09/04 05:42:31;;;;;;;;;;;;;;;;;;5013492;28;20026;-65
2021/09/04 05:44:58;;;;;;;;;;;;;;;;;;5019594;23;20018;-68
2021/09/04 05:47:24;;;;;;;;;;;;;;;;;;5001661;28;19994;-67
2021/09/04 05:49:51;;;;;;;;;;;;;;;;;;5011156;28;19998;-66
2021/09/04 05:52:18;;;;;;;;;;;;;;;;;;5013636;28;20081;-66
2021/09/04 05:54:45;;;;;;;;;;;;;;;;;;5013733;28;20018;-67
2021/09/04 05:57:12;;;;;;;;;;;;;;;;;;5013858;28;20009;-66
2021/09/04 05:59:39;;;;;;;;;;;;;;;;;;5013981;28;20381;-67
2021/09/04 06:02:06;;;;;;;;;;;;;;;;;;5013738;28;20009;-66
2021/09/04 06:04:33;;;;;;;;;;;;;;;;;;5012990;28;20022;-65
2021/09/04 06:07:00;;;;;;;;;;;;;;;;;;5013970;28;20002;-66
2021/09/04 06:09:27;;;;;;;;;;;;;;;;;;5013601;28;20002;-66
2021/09/04 06:11:54;;;;;;;;;;;;;;;;;;5013282;28;20355;-65
2021/09/04 06:14:20;;;;;;;;;;;;;;;;;;5013620;28;20029;-66
2021/09/04 06:16:47;;;;;;;;;;;;;;;;;;5013712;28;20002;-67
2021/09/04 06:19:14;;;;;;;;;;;;;;;;;;5013871;28;20021;-67
2021/09/04 06:21:41;;;;;;;;;;;;;;;;;;5013532;28;20516;-66
2021/09/04 06:24:08;;;;;;;;;;;;;;;;;;5014390;28;20022;-66
2021/09/04 06:26:35;;;;;;;;;;;;;;;;;;5013322;28;20013;-66
2021/09/04 06:29:02;;;;;;;;;;;;;;;;;;5013592;28;20002;-65
2021/09/04 06:31:29;;;;;;;;;;;;;;;;;;5013402;28;20010;-66
2021/09/04 06:33:56;;;;;;;;;;;;;;;;;;5013435;28;20040;-66
2021/09/04 06:36:23;;;;;;;;;;;;;;;;;;5012953;28;20002;-66
2021/09/04 06:38:50;;;;;;;;;;;;;;;;;;5013415;28;20010;-66
2021/09/04 06:41:16;;;;;;;;;;;;;;;;;;5012597;28;20457;-66
2021/09/04 06:43:43;;;;;;;;;;;;;;;;;;5013107;28;20037;-66
2021/09/04 06:46:10;;;;;;;;;;;;;;;;;;5013772;28;20002;-66
2021/09/04 06:48:37;;;;;;;;;;;;;;;;;;5012676;28;20009;-66
2021/09/04 06:51:04;;;;;;;;;;;;;;;;;;5012739;28;20006;-66
2021/09/04 06:53:31;;;;;;;;;;;;;;;;;;5013007;28;20366;-66
2021/09/04 06:55:58;;;;;;;;;;;;;;;;;;5013221;28;20002;-66
2021/09/04 06:58:25;;;;;;;;;;;;;;;;;;5012649;28;20002;-66
2021/09/04 07:00:52;;;;;;;;;;;;;;;;;;5012578;28;20018;-66
2021/09/04 07:03:19;;;;;;;;;;;;;;;;;;5012647;28;20001;-66
2021/09/04 07:05:45;;;;;;;;;;;;;;;;;;5013332;28;20025;-66
2021/09/04 07:08:12;;;;;;;;;;;;;;;;;;5013188;28;20002;-66
2021/09/04 07:10:39;;;;;;;;;;;;;;;;;;5013003;28;20002;-66
2021/09/04 07:13:06;;;;;;;;;;;;;;;;;;5013070;28;20453;-66
2021/09/04 07:15:33;;;;;;;;;;;;;;;;;;5012631;28;20029;-66
2021/09/04 07:18:00;;;;;;;;;;;;;;;;;;5012859;28;20002;-67
2021/09/04 07:20:27;;;;;;;;;;;;;;;;;;5012719;28;20021;-66
2021/09/04 07:22:54;;;;;;;;;;;;;;;;;;5013314;28;20006;-66
2021/09/04 07:25:21;;;;;;;;;;;;;;;;;;5012583;28;20377;-66
2021/09/04 07:27:48;;;;;;;;;;;;;;;;;;5012463;28;20002;-66
2021/09/04 07:30:16;;;;;;;;;;;;;;;;;;5012150;28;20006;-66
2021/09/04 07:32:42;;;;;;;;;;;;;;;;;;5012564;28;20493;-66
2021/09/04 07:35:09;;;;;;;;;;;;;;;;;;5012454;28;20018;-66
2021/09/04 07:37:36;;;;;;;;;;;;;;;;;;5012879;28;20002;-66
2021/09/04 07:40:03;;;;;;;;;;;;;;;;;;5012725;28;20528;-66
2021/09/04 07:42:30;;;;;;;;;;;;;;;;;;5012784;28;20002;-66
2021/09/04 07:44:57;;;;;;;;;;;;;;;;;;5012649;28;20045;-66
2021/09/04 07:47:24;;;;;;;;;;;;;;;;;;5012701;28;20009;-66
2021/09/04 07:49:51;;;;;;;;;;;;;;;;;;5012702;28;20010;-66
2021/09/04 07:52:18;;;;;;;;;;;;;;;;;;5012298;28;20457;-66
2021/09/04 07:54:45;;;;;;;;;;;;;;;;;;5012672;28;20029;-66
2021/09/04 07:57:12;;;;;;;;;;;;;;;;;;5012719;28;20002;-67
2021/09/04 07:59:38;;;;;;;;;;;;;;;;;;5012417;28;20014;-66
2021/09/04 08:02:05;;;;;;;;;;;;;;;;;;5012043;28;20003;-67
2021/09/04 08:04:32;;;;;;;;;;;;;;;;;;5012392;28;20595;-66
2021/09/04 08:06:59;;;;;;;;;;;;;;;;;;5012872;28;20002;-66
2021/09/04 08:09:26;;;;;;;;;;;;;;;;;;5013013;28;20025;-66
2021/09/04 08:11:53;;;;;;;;;;;;;;;;;;5012843;28;20002;-66
2021/09/04 08:14:20;;;;;;;;;;;;;;;;;;5012853;28;20019;-66
2021/09/04 08:16:47;;;;;;;;;;;;;;;;;;5013524;28;20024;-66
2021/09/04 08:19:14;;;;;;;;;;;;;;;;;;5013248;28;20006;-67
2021/09/04 08:21:41;;;;;;;;;;;;;;;;;;5014058;28;20018;-66
2021/09/04 08:24:08;;;;;;;;;;;;;;;;;;5012858;28;20397;-67
2021/09/04 08:26:34;;;;;;;;;;;;;;;;;;5013201;28;20009;-66
2021/09/04 08:29:01;;;;;;;;;;;;;;;;;;5016383;28;20002;-66
2021/09/04 08:31:28;;;;;;;;;;;;;;;;;;5016182;28;20400;-67
2021/09/04 08:33:55;;;;;;;;;;;;;;;;;;5016431;28;20029;-66
2021/09/04 08:36:22;;;;;;;;;;;;;;;;;;5015803;28;20003;-69
2021/09/04 08:38:49;;;;;;;;;;;;;;;;;;5015178;28;20009;-69
2021/09/04 08:41:16;;;;;;;;;;;;;;;;;;5014692;28;20014;-69
2021/09/04 08:43:43;;;;;;;;;;;;;;;;;;5015062;28;20030;-69
2021/09/04 08:46:10;;;;;;;;;;;;;;;;;;5015117;28;20480;-69
2021/09/04 08:48:37;;;;;;;;;;;;;;;;;;5015383;28;20002;-69
2021/09/04 08:51:04;;;;;;;;;;;;;;;;;;5015073;28;20029;-69
2021/09/04 08:53:30;;;;;;;;;;;;;;;;;;5015077;28;20009;-69
2021/09/04 08:55:57;;;;;;;;;;;;;;;;;;5014920;28;20009;-69
2021/09/04 08:58:24;;;;;;;;;;;;;;;;;;5015070;28;20450;-69
2021/09/04 09:00:51;;;;;;;;;;;;;;;;;;5014613;28;20025;-68
2021/09/04 09:03:18;;;;;;;;;;;;;;;;;;5014657;28;20002;-68
2021/09/04 09:05:45;;;;;;;;;;;;;;;;;;5014377;28;20517;-69
2021/09/04 09:08:12;;;;;;;;;;;;;;;;;;5015113;28;20002;-69
2021/09/04 09:10:40;;;;;;;;;;;;;;;;;;5014447;28;20002;-69
2021/09/04 09:13:07;;;;;;;;;;;;;;;;;;5014824;28;20002;-69
2021/09/04 09:15:34;;;;;;;;;;;;;;;;;;5014717;28;20018;-68
2021/09/04 09:18:01;;;;;;;;;;;;;;;;;;5014158;28;20516;-69
2021/09/04 09:20:28;;;;;;;;;;;;;;;;;;5014009;28;20015;-69
2021/09/04 09:22:54;;;;;;;;;;;;;;;;;;5014456;28;20029;-68
2021/09/04 09:25:21;;;;;;;;;;;;;;;;;;5014253;28;20032;-69
2021/09/04 09:27:48;;;;;;;;;;;;;;;;;;5014304;28;20009;-69
2021/09/04 09:30:15;;;;;;;;;;;;;;;;;;5014247;28;20161;-69
2021/09/04 09:32:42;;;;;;;;;;;;;;;;;;5013844;28;20009;-69
2021/09/04 09:35:09;;;;;;;;;;;;;;;;;;5014948;28;20018;-66
2021/09/04 09:37:36;;;;;;;;;;;;;;;;;;5015401;28;20400;-65
2021/09/04 09:40:03;;;;;;;;;;;;;;;;;;5015041;28;20022;-66
2021/09/04 09:42:30;;;;;;;;;;;;;;;;;;5015460;28;20010;-66
2021/09/04 09:44:57;;;;;;;;;;;;;;;;;;5015173;28;20022;-67
2021/09/04 09:47:24;;;;;;;;;;;;;;;;;;5015011;28;20009;-66
2021/09/04 09:49:51;;;;;;;;;;;;;;;;;;5015196;28;20002;-66
2021/09/04 09:52:18;;;;;;;;;;;;;;;;;;5014938;28;20424;-66
2021/09/04 09:54:45;;;;;;;;;;;;;;;;;;5015164;28;20018;-66
2021/09/04 09:57:12;;;;;;;;;;;;;;;;;;5016212;28;20093;-65
2021/09/04 09:59:39;;;;;;;;;;;;;;;;;;5016256;28;20002;-66
2021/09/04 10:02:06;;;;;;;;;;;;;;;;;;5016312;28;20022;-68
2021/09/04 10:04:33;;;;;;;;;;;;;;;;;;5017494;28;20029;-66
2021/09/04 10:07:00;;;;;;;;;;;;;;;;;;5027694;28;20444;-66
2021/09/04 10:09:27;;;;;;;;;;;;;;;;;;5030518;28;20003;-66
2021/09/04 10:11:54;;;;;;;;;;;;;;;;;;5026592;28;20014;-66
2021/09/04 10:14:21;;;;;;;;;;;;;;;;;;5021906;28;20025;-66
2021/09/04 10:16:48;;;;;;;;;;;;;;;;;;5018775;28;20002;-66
2021/09/04 10:19:15;;;;;;;;;;;;;;;;;;5015480;28;20002;-66
2021/09/04 10:21:42;;;;;;;;;;;;;;;;;;5015184;28;20025;-66
2021/09/04 10:24:08;;;;;;;;;;;;;;;;;;5015350;28;20018;-66
2021/09/04 10:26:35;;;;;;;;;;;;;;;;;;5015980;28;20013;-66
2021/09/04 10:29:02;;;;;;;;;;;;;;;;;;5015518;28;20001;-66
2021/09/04 10:31:29;;;;;;;;;;;;;;;;;;5016715;28;20001;-66
2021/09/04 10:33:56;;;;;;;;;;;;;;;;;;5017306;28;20029;-66
2021/09/04 10:36:23;;;;;;;;;;;;;;;;;;5018732;28;20002;-66
2021/09/04 10:38:50;;;;;;;;;;;;;;;;;;5029937;28;20008;-66
2021/09/04 10:41:17;;;;;;;;;;;;;;;;;;5031199;28;20018;-66
2021/09/04 10:43:44;;;;;;;;;;;;;;;;;;5029424;28;20036;-66
2021/09/04 10:46:11;;;;;;;;;;;;;;;;;;5030136;28;20002;-66
2021/09/04 10:48:37;;;;;;;;;;;;;;;;;;5030830;28;19990;-66
2021/09/04 10:51:07;;;;;;;;;;;;;;;;;;5029351;28;20012;-66
2021/09/04 10:53:34;;;;;;;;;;;;;;;;;;5019698;28;20002;-66
2021/09/04 10:56:01;;;;;;;;;;;;;;;;;;5013724;28;20002;-66
2021/09/04 10:58:28;;;;;;;;;;;;;;;;;;5013662;28;20002;-66
2021/09/04 11:00:55;;;;;;;;;;;;;;;;;;5013025;28;20500;-66
2021/09/04 11:03:22;;;;;;;;;;;;;;;;;;5013281;28;20006;-66
2021/09/04 11:05:49;;;;;;;;;;;;;;;;;;5013453;28;20006;-67
2021/09/04 11:08:16;;;;;;;;;;;;;;;;;;5013567;28;20002;-66
2021/09/04 11:10:43;;;;;;;;;;;;;;;;;;5013523;28;20002;-66
2021/09/04 11:13:10;;;;;;;;;;;;;;;;;;5013423;28;20010;-67
2021/09/04 11:15:36;;;;;;;;;;;;;;;;;;5013354;28;20022;-66
2021/09/04 11:18:03;;;;;;;;;;;;;;;;;;5013430;28;20370;-67
2021/09/04 11:20:30;;;;;;;;;;;;;;;;;;5013349;28;20018;-66
2021/09/04 11:22:57;;;;;;;;;;;;;;;;;;5013364;28;20013;-67
2021/09/04 11:25:24;;;;;;;;;;;;;;;;;;5013247;28;20069;-66
2021/09/04 11:27:51;;;;;;;;;;;;;;;;;;5013029;28;20488;-67
2021/09/04 11:30:18;;;;;;;;;;;;;;;;;;5013485;28;20002;-67
2021/09/04 11:32:45;;;;;;;;;;;;;;;;;;5013782;28;20002;-66
2021/09/04 11:35:12;;;;;;;;;;;;;;;;;;5013599;28;20018;-67
2021/09/04 11:37:39;;;;;;;;;;;;;;;;;;5013547;28;20002;-66
2021/09/04 11:40:06;;;;;;;;;;;;;;;;;;5013368;28;20025;-66
2021/09/04 11:42:33;;;;;;;;;;;;;;;;;;5012423;28;20489;-66
2021/09/04 11:44:59;;;;;;;;;;;;;;;;;;5037348;23;20026;-65
2021/09/04 11:47:26;;;;;;;;;;;;;;;;;;4981052;28;20462;-63
2021/09/04 11:49:53;;;;;;;;;;;;;;;;;;5000632;28;20005;-63
2021/09/04 11:52:20;;;;;;;;;;;;;;;;;;4992409;28;20013;-62
2021/09/04 11:54:47;;;;;;;;;;;;;;;;;;4992699;28;20002;-63
2021/09/04 11:57:14;;;;;;;;;;;;;;;;;;4992141;28;20393;-62
2021/09/04 11:59:41;;;;;;;;;;;;;;;;;;4992560;28;20002;-63
2021/09/04 12:02:08;;;;;;;;;;;;;;;;;;4994889;28;20041;-62
2021/09/04 12:04:35;;;;;;;;;;;;;;;;;;4996294;28;20010;-65
2021/09/04 12:07:02;;;;;;;;;;;;;;;;;;4996088;28;20026;-62
2021/09/04 12:09:29;;;;;;;;;;;;;;;;;;4996246;28;20007;-62
2021/09/04 12:11:55;;;;;;;;;;;;;;;;;;4996314;28;20013;-62
2021/09/04 12:14:22;;;;;;;;;;;;;;;;;;4996365;28;20002;-62
2021/09/04 12:16:49;;;;;;;;;;;;;;;;;;4996334;28;20374;-63
2021/09/04 12:19:16;;;;;;;;;;;;;;;;;;4996511;28;20003;-62
2021/09/04 12:21:43;;;;;;;;;;;;;;;;;;4995720;28;20548;-63
2021/09/04 12:24:10;;;;;;;;;;;;;;;;;;4995916;28;20002;-62
2021/09/04 12:26:37;;;;;;;;;;;;;;;;;;4995670;28;20226;-62
2021/09/04 12:29:04;;;;;;;;;;;;;;;;;;4995661;28;20362;-62
2021/09/04 12:31:31;;;;;;;;;;;;;;;;;;4995558;28;20009;-63
2021/09/04 12:33:58;;;;;;;;;;;;;;;;;;4995582;28;20006;-62
2021/09/04 12:36:25;;;;;;;;;;;;;;;;;;4995610;28;20027;-62
2021/09/04 12:38:52;;;;;;;;;;;;;;;;;;4995698;28;20030;-62
2021/09/04 12:41:19;;;;;;;;;;;;;;;;;;4995653;28;20026;-61
2021/09/04 12:43:45;;;;;;;;;;;;;;;;;;4996167;28;20002;-63
2021/09/04 12:46:12;;;;;;;;;;;;;;;;;;4995118;28;20520;-63
2021/09/04 12:48:39;;;;;;;;;;;;;;;;;;4995666;28;20002;-63
2021/09/04 12:51:06;;;;;;;;;;;;;;;;;;4995437;28;20002;-63
2021/09/04 12:53:33;;;;;;;;;;;;;;;;;;4995515;28;20002;-63
2021/09/04 12:56:02;;;;;;;;;;;;;;;;;;4995255;28;20429;-63
2021/09/04 12:58:28;;;;;;;;;;;;;;;;;;4995149;28;20013;-63
2021/09/04 13:00:55;;;;;;;;;;;;;;;;;;4994942;28;20002;-63
2021/09/04 13:03:22;;;;;;;;;;;;;;;;;;4995558;28;20002;-63
2021/09/04 13:05:49;;;;;;;;;;;;;;;;;;4994746;28;20482;-63
2021/09/04 13:08:16;;;;;;;;;;;;;;;;;;4994979;28;20009;-62
2021/09/04 13:10:43;;;;;;;;;;;;;;;;;;4995033;28;20002;-63
2021/09/04 13:13:10;;;;;;;;;;;;;;;;;;4994640;28;20010;-63
2021/09/04 13:15:37;;;;;;;;;;;;;;;;;;4995737;28;20018;-63
2021/09/04 13:18:04;;;;;;;;;;;;;;;;;;4998197;28;20469;-64
2021/09/04 13:20:31;;;;;;;;;;;;;;;;;;5001567;28;20009;-63
2021/09/04 13:22:58;;;;;;;;;;;;;;;;;;5000362;28;20033;-63
2021/09/04 13:25:25;;;;;;;;;;;;;;;;;;4995105;28;20018;-63
2021/09/04 13:27:52;;;;;;;;;;;;;;;;;;4994753;28;20003;-63
2021/09/04 13:30:19;;;;;;;;;;;;;;;;;;4994605;28;20007;-62
2021/09/04 13:32:45;;;;;;;;;;;;;;;;;;4994767;28;20003;-63
2021/09/04 13:35:12;;;;;;;;;;;;;;;;;;4995055;28;20442;-64
2021/09/04 13:37:40;;;;;;;;;;;;;;;;;;4994765;28;20006;-63
2021/09/04 13:40:07;;;;;;;;;;;;;;;;;;4994811;28;20101;-64
2021/09/04 13:42:34;;;;;;;;;;;;;;;;;;4994520;28;20018;-63
2021/09/04 13:45:01;;;;;;;;;;;;;;;;;;4993999;28;20002;-64
2021/09/04 13:47:28;;;;;;;;;;;;;;;;;;4994674;28;20002;-63
2021/09/04 13:49:54;;;;;;;;;;;;;;;;;;4994513;28;20011;-63
2021/09/04 13:52:21;;;;;;;;;;;;;;;;;;4994173;28;20003;-63
2021/09/04 13:54:48;;;;;;;;;;;;;;;;;;4994843;28;20003;-63
2021/09/04 13:57:15;;;;;;;;;;;;;;;;;;4993875;28;20375;-62
2021/09/04 13:59:42;;;;;;;;;;;;;;;;;;4994705;28;20002;-63
2021/09/04 14:02:09;;;;;;;;;;;;;;;;;;4993925;28;20022;-63
2021/09/04 14:04:36;;;;;;;;;;;;;;;;;;4994121;28;20492;-63
2021/09/04 14:07:03;;;;;;;;;;;;;;;;;;4994544;28;20018;-63
2021/09/04 14:09:32;;;;;;;;;;;;;;;;;;4994165;28;20010;-63
2021/09/04 14:11:59;;;;;;;;;;;;;;;;;;4993745;28;20101;-63
2021/09/04 14:14:26;;;;;;;;;;;;;;;;;;4994571;28;20003;-63
2021/09/04 14:16:53;;;;;;;;;;;;;;;;;;4993604;28;20355;-64
2021/09/04 14:19:20;;;;;;;;;;;;;;;;;;4993829;28;20002;-63
2021/09/04 14:21:47;;;;;;;;;;;;;;;;;;4993558;28;20015;-64
2021/09/04 14:24:14;;;;;;;;;;;;;;;;;;4993622;28;20002;-63
2021/09/04 14:26:41;;;;;;;;;;;;;;;;;;4993111;28;20019;-64
2021/09/04 14:29:08;;;;;;;;;;;;;;;;;;4993639;28;20002;-64
2021/09/04 14:31:35;;;;;;;;;;;;;;;;;;4993313;28;20013;-63
2021/09/04 14:34:01;;;;;;;;;;;;;;;;;;4993720;28;20002;-64
2021/09/04 14:36:28;;;;;;;;;;;;;;;;;;4993717;28;20018;-63
2021/09/04 14:38:55;;;;;;;;;;;;;;;;;;4993928;28;20009;-64
2021/09/04 14:41:22;;;;;;;;;;;;;;;;;;4994137;28;20366;-64
2021/09/04 14:43:49;;;;;;;;;;;;;;;;;;4994618;28;20010;-64
2021/09/04 14:46:16;;;;;;;;;;;;;;;;;;4994887;28;20022;-64
2021/09/04 14:48:43;;;;;;;;;;;;;;;;;;4994397;28;20458;-64
2021/09/04 14:51:10;;;;;;;;;;;;;;;;;;4994275;28;20014;-64
2021/09/04 14:53:37;;;;;;;;;;;;;;;;;;4993584;28;20003;-64
2021/09/04 14:56:04;;;;;;;;;;;;;;;;;;4993078;28;20018;-64
2021/09/04 14:58:31;;;;;;;;;;;;;;;;;;4994576;28;20003;-63
2021/09/04 15:00:58;;;;;;;;;;;;;;;;;;4993335;28;20003;-64
2021/09/04 15:03:25;;;;;;;;;;;;;;;;;;4993205;28;20509;-63
2021/09/04 15:05:52;;;;;;;;;;;;;;;;;;4993362;28;20026;-64
2021/09/04 15:08:18;;;;;;;;;;;;;;;;;;4993267;28;20002;-63
2021/09/04 15:10:45;;;;;;;;;;;;;;;;;;4993227;28;20359;-64
2021/09/04 15:13:12;;;;;;;;;;;;;;;;;;4993156;28;20002;-63
2021/09/04 15:15:39;;;;;;;;;;;;;;;;;;4993326;28;20018;-64
2021/09/04 15:18:06;;;;;;;;;;;;;;;;;;4992963;28;20382;-66
2021/09/04 15:20:33;;;;;;;;;;;;;;;;;;4993222;28;20010;-64
2021/09/04 15:23:00;;;;;;;;;;;;;;;;;;4993467;28;20023;-64
2021/09/04 15:25:27;;;;;;;;;;;;;;;;;;4993453;28;20073;-63
2021/09/04 15:27:54;;;;;;;;;;;;;;;;;;4993178;28;20013;-64
2021/09/04 15:30:21;;;;;;;;;;;;;;;;;;4993483;28;20002;-64
2021/09/04 15:32:48;;;;;;;;;;;;;;;;;;4993242;28;20484;-64
2021/09/04 15:35:15;;;;;;;;;;;;;;;;;;4994270;28;20053;-64
2021/09/04 15:37:42;;;;;;;;;;;;;;;;;;4998894;28;20461;-64
2021/09/04 15:40:08;;;;;;;;;;;;;;;;;;5000428;28;20009;-64
2021/09/04 15:42:35;;;;;;;;;;;;;;;;;;5000761;28;20022;-64
2021/09/04 15:45:02;;;;;;;;;;;;;;;;;;5000521;28;20446;-64
2021/09/04 15:47:29;;;;;;;;;;;;;;;;;;5001628;28;20002;-64
2021/09/04 15:49:56;;;;;;;;;;;;;;;;;;5005159;28;20009;-68
2021/09/04 15:52:23;;;;;;;;;;;;;;;;;;5005125;28;20002;-64
2021/09/04 15:54:50;;;;;;;;;;;;;;;;;;4996811;28;20006;-64
2021/09/04 15:57:17;;;;;;;;;;;;;;;;;;4996690;28;20022;-64
2021/09/04 15:59:44;;;;;;;;;;;;;;;;;;4996665;28;20492;-64
2021/09/04 16:02:11;;;;;;;;;;;;;;;;;;4996636;28;20018;-64
2021/09/04 16:04:38;;;;;;;;;;;;;;;;;;4996590;28;20003;-63
2021/09/04 16:07:05;;;;;;;;;;;;;;;;;;4995953;28;20027;-64
2021/09/04 16:09:32;;;;;;;;;;;;;;;;;;4996759;28;20179;-64
2021/09/04 16:11:59;;;;;;;;;;;;;;;;;;4996208;28;20377;-64
2021/09/04 16:14:26;;;;;;;;;;;;;;;;;;4996323;28;20002;-64
2021/09/04 16:16:53;;;;;;;;;;;;;;;;;;4996064;28;20018;-64
2021/09/04 16:19:20;;;;;;;;;;;;;;;;;;4996245;28;20029;-63
2021/09/04 16:21:47;;;;;;;;;;;;;;;;;;4995523;28;20377;-62
2021/09/04 16:24:13;;;;;;;;;;;;;;;;;;4996121;28;20006;-62
2021/09/04 16:26:40;;;;;;;;;;;;;;;;;;4996052;28;20029;-63
2021/09/04 16:29:07;;;;;;;;;;;;;;;;;;4996020;28;20378;-63
2021/09/04 16:31:34;;;;;;;;;;;;;;;;;;4995302;28;20002;-62
2021/09/04 16:34:01;;;;;;;;;;;;;;;;;;4995632;28;20008;-62
2021/09/04 16:36:28;;;;;;;;;;;;;;;;;;4995391;28;20495;-62
2021/09/04 16:38:55;;;;;;;;;;;;;;;;;;4995953;28;20009;-63
2021/09/04 16:41:22;;;;;;;;;;;;;;;;;;4995983;28;20007;-63
2021/09/04 16:43:49;;;;;;;;;;;;;;;;;;4995289;28;20025;-63